sensor_id;sensor_type;location;lat;lon;timestamp;temperature;humidity
31038;DHT22;17702;47.590;7.666;2024-01-16T00:00:55;1.20;99.20
31038;DHT22;17702;47.590;7.666;2024-01-16T00:03:21;1.30;99.30
31038;DHT22;17702;47.590;7.666;2024-01-16T00:05:47;1.30;98.60
31038;DHT22;17702;47.590;7.666;2024-01-16T00:08:12;1.20;98.50
31038;DHT22;17702;47.590;7.666;2024-01-16T00:10:38;1.10;99.00
31038;DHT22;17702;47.590;7.666;2024-01-16T00:13:03;1.10;99.10
31038;DHT22;17702;47.590;7.666;2024-01-16T00:15:29;1.10;98.80
31038;DHT22;17702;47.590;7.666;2024-01-16T00:17:54;1.10;98.80
31038;DHT22;17702;47.590;7.666;2024-01-16T00:20:20;1.10;98.30
31038;DHT22;17702;47.590;7.666;2024-01-16T00:22:47;1.00;98.10
31038;DHT22;17702;47.590;7.666;2024-01-16T00:25:13;0.80;98.30
31038;DHT22;17702;47.590;7.666;2024-01-16T00:27:39;0.70;98.60
31038;DHT22;17702;47.590;7.666;2024-01-16T00:30:05;0.70;98.80
31038;DHT22;17702;47.590;7.666;2024-01-16T00:32:31;0.70;99.30
31038;DHT22;17702;47.590;7.666;2024-01-16T00:34:57;0.60;98.80
31038;DHT22;17702;47.590;7.666;2024-01-16T00:37:23;0.60;99.20
31038;DHT22;17702;47.590;7.666;2024-01-16T00:39:48;0.60;99.30
31038;DHT22;17702;47.590;7.666;2024-01-16T00:42:14;0.60;98.90
31038;DHT22;17702;47.590;7.666;2024-01-16T00:44:42;0.60;99.00
31038;DHT22;17702;47.590;7.666;2024-01-16T00:47:08;0.50;99.20
31038;DHT22;17702;47.590;7.666;2024-01-16T00:49:35;0.50;99.10
31038;DHT22;17702;47.590;7.666;2024-01-16T00:52:00;0.50;98.90
31038;DHT22;17702;47.590;7.666;2024-01-16T00:54:26;0.50;98.70
31038;DHT22;17702;47.590;7.666;2024-01-16T00:56:52;0.50;98.50
31038;DHT22;17702;47.590;7.666;2024-01-16T00:59:20;0.40;99.20
31038;DHT22;17702;47.590;7.666;2024-01-16T01:01:46;0.40;99.40
31038;DHT22;17702;47.590;7.666;2024-01-16T01:04:12;0.40;99.40
31038;DHT22;17702;47.590;7.666;2024-01-16T01:06:37;0.50;99.70
31038;DHT22;17702;47.590;7.666;2024-01-16T01:09:03;0.40;99.90
31038;DHT22;17702;47.590;7.666;2024-01-16T01:11:28;0.40;99.20
31038;DHT22;17702;47.590;7.666;2024-01-16T01:13:54;0.30;99.70
31038;DHT22;17702;47.590;7.666;2024-01-16T01:16:19;0.40;99.90
31038;DHT22;17702;47.590;7.666;2024-01-16T01:18:45;0.40;99.60
31038;DHT22;17702;47.590;7.666;2024-01-16T01:21:10;0.50;99.50
31038;DHT22;17702;47.590;7.666;2024-01-16T01:23:36;0.50;99.50
31038;DHT22;17702;47.590;7.666;2024-01-16T01:26:02;0.50;98.80
31038;DHT22;17702;47.590;7.666;2024-01-16T01:28:29;0.40;98.90
31038;DHT22;17702;47.590;7.666;2024-01-16T01:30:54;0.30;99.20
31038;DHT22;17702;47.590;7.666;2024-01-16T01:33:20;0.30;99.40
31038;DHT22;17702;47.590;7.666;2024-01-16T01:35:45;0.20;99.10
31038;DHT22;17702;47.590;7.666;2024-01-16T01:38:11;0.10;99.40
31038;DHT22;17702;47.590;7.666;2024-01-16T01:40:36;0.10;99.70
31038;DHT22;17702;47.590;7.666;2024-01-16T01:43:21;0.20;99.80
31038;DHT22;17702;47.590;7.666;2024-01-16T01:46:09;0.10;99.30
31038;DHT22;17702;47.590;7.666;2024-01-16T01:48:37;0.00;99.40
31038;DHT22;17702;47.590;7.666;2024-01-16T01:51:03;0.00;99.70
31038;DHT22;17702;47.590;7.666;2024-01-16T01:53:31;-0.10;99.80
31038;DHT22;17702;47.590;7.666;2024-01-16T01:55:57;-0.10;99.90
31038;DHT22;17702;47.590;7.666;2024-01-16T01:58:23;-0.10;99.90
31038;DHT22;17702;47.590;7.666;2024-01-16T02:00:49;-0.10;99.70
31038;DHT22;17702;47.590;7.666;2024-01-16T02:03:15;-0.10;99.80
31038;DHT22;17702;47.590;7.666;2024-01-16T02:05:40;-0.10;99.90
31038;DHT22;17702;47.590;7.666;2024-01-16T02:08:06;-0.20;99.90
31038;DHT22;17702;47.590;7.666;2024-01-16T02:10:35;-0.20;99.90
31038;DHT22;17702;47.590;7.666;2024-01-16T02:13:01;-0.20;99.90
31038;DHT22;17702;47.590;7.666;2024-01-16T02:15:27;-0.10;99.90
31038;DHT22;17702;47.590;7.666;2024-01-16T02:17:53;0.00;99.90
31038;DHT22;17702;47.590;7.666;2024-01-16T02:20:18;0.00;99.90
31038;DHT22;17702;47.590;7.666;2024-01-16T02:22:46;0.00;99.80
31038;DHT22;17702;47.590;7.666;2024-01-16T02:25:14;-0.10;99.70
31038;DHT22;17702;47.590;7.666;2024-01-16T02:27:39;-0.10;99.90
31038;DHT22;17702;47.590;7.666;2024-01-16T02:30:05;-0.10;99.80
31038;DHT22;17702;47.590;7.666;2024-01-16T02:32:31;-0.20;99.90
31038;DHT22;17702;47.590;7.666;2024-01-16T02:34:58;-0.10;99.90
31038;DHT22;17702;47.590;7.666;2024-01-16T02:37:23;-0.10;99.90
31038;DHT22;17702;47.590;7.666;2024-01-16T02:39:49;-0.10;99.30
31038;DHT22;17702;47.590;7.666;2024-01-16T02:42:15;-0.20;99.70
31038;DHT22;17702;47.590;7.666;2024-01-16T02:44:40;-0.20;99.90
31038;DHT22;17702;47.590;7.666;2024-01-16T02:47:06;-0.10;99.90
31038;DHT22;17702;47.590;7.666;2024-01-16T02:49:32;-0.10;99.50
31038;DHT22;17702;47.590;7.666;2024-01-16T02:51:58;-0.20;99.40
31038;DHT22;17702;47.590;7.666;2024-01-16T02:54:24;-0.30;99.80
31038;DHT22;17702;47.590;7.666;2024-01-16T02:56:49;-0.30;99.90
31038;DHT22;17702;47.590;7.666;2024-01-16T02:59:15;-0.40;99.70
31038;DHT22;17702;47.590;7.666;2024-01-16T03:01:41;-0.50;99.90
31038;DHT22;17702;47.590;7.666;2024-01-16T03:04:06;-0.50;99.90
31038;DHT22;17702;47.590;7.666;2024-01-16T03:06:32;-0.50;99.90
31038;DHT22;17702;47.590;7.666;2024-01-16T03:08:57;-0.50;99.80
31038;DHT22;17702;47.590;7.666;2024-01-16T03:11:23;-0.40;99.60
31038;DHT22;17702;47.590;7.666;2024-01-16T03:13:48;-0.50;99.20
31038;DHT22;17702;47.590;7.666;2024-01-16T03:16:20;-0.60;99.90
31038;DHT22;17702;47.590;7.666;2024-01-16T03:18:46;-0.60;99.90
31038;DHT22;17702;47.590;7.666;2024-01-16T03:21:13;-0.60;99.90
31038;DHT22;17702;47.590;7.666;2024-01-16T03:23:38;-0.60;99.90
31038;DHT22;17702;47.590;7.666;2024-01-16T03:26:04;-0.70;99.90
31038;DHT22;17702;47.590;7.666;2024-01-16T03:28:29;-0.60;99.90
31038;DHT22;17702;47.590;7.666;2024-01-16T03:30:55;-0.60;99.90
31038;DHT22;17702;47.590;7.666;2024-01-16T03:33:21;-0.50;99.90
31038;DHT22;17702;47.590;7.666;2024-01-16T03:35:46;-0.50;99.90
31038;DHT22;17702;47.590;7.666;2024-01-16T03:38:13;-0.60;99.90
31038;DHT22;17702;47.590;7.666;2024-01-16T03:40:38;-0.60;99.90
31038;DHT22;17702;47.590;7.666;2024-01-16T03:43:04;-0.60;99.20
31038;DHT22;17702;47.590;7.666;2024-01-16T03:45:30;-0.70;99.40
31038;DHT22;17702;47.590;7.666;2024-01-16T03:47:57;-0.70;99.50
31038;DHT22;17702;47.590;7.666;2024-01-16T03:50:22;-0.70;99.30
31038;DHT22;17702;47.590;7.666;2024-01-16T03:52:48;-0.70;99.40
31038;DHT22;17702;47.590;7.666;2024-01-16T03:55:13;-0.70;99.30
31038;DHT22;17702;47.590;7.666;2024-01-16T03:57:39;-0.70;99.20
31038;DHT22;17702;47.590;7.666;2024-01-16T04:00:05;-0.70;99.40
31038;DHT22;17702;47.590;7.666;2024-01-16T04:02:31;-0.70;99.60
31038;DHT22;17702;47.590;7.666;2024-01-16T04:04:57;-0.80;99.90
31038;DHT22;17702;47.590;7.666;2024-01-16T04:07:23;-0.70;99.90
31038;DHT22;17702;47.590;7.666;2024-01-16T04:09:52;-0.70;99.90
31038;DHT22;17702;47.590;7.666;2024-01-16T04:12:17;-0.70;99.90
31038;DHT22;17702;47.590;7.666;2024-01-16T04:14:43;-0.80;99.90
31038;DHT22;17702;47.590;7.666;2024-01-16T04:17:08;-0.90;99.90
31038;DHT22;17702;47.590;7.666;2024-01-16T04:19:34;-0.80;99.90
31038;DHT22;17702;47.590;7.666;2024-01-16T04:22:00;-0.70;99.90
31038;DHT22;17702;47.590;7.666;2024-01-16T04:24:27;-0.70;99.90
31038;DHT22;17702;47.590;7.666;2024-01-16T04:26:52;-0.70;99.60
31038;DHT22;17702;47.590;7.666;2024-01-16T04:29:18;-0.70;99.40
31038;DHT22;17702;47.590;7.666;2024-01-16T04:31:43;-0.80;99.40
31038;DHT22;17702;47.590;7.666;2024-01-16T04:34:09;-0.80;99.50
31038;DHT22;17702;47.590;7.666;2024-01-16T04:36:35;-0.80;99.20
31038;DHT22;17702;47.590;7.666;2024-01-16T04:39:00;-1.00;99.30
31038;DHT22;17702;47.590;7.666;2024-01-16T04:41:26;-1.00;99.50
31038;DHT22;17702;47.590;7.666;2024-01-16T04:43:51;-1.00;99.30
31038;DHT22;17702;47.590;7.666;2024-01-16T04:46:17;-1.10;99.20
31038;DHT22;17702;47.590;7.666;2024-01-16T04:48:43;-1.10;99.50
31038;DHT22;17702;47.590;7.666;2024-01-16T04:51:09;-1.20;99.90
31038;DHT22;17702;47.590;7.666;2024-01-16T04:53:34;-1.10;99.90
31038;DHT22;17702;47.590;7.666;2024-01-16T04:56:00;-1.10;99.50
31038;DHT22;17702;47.590;7.666;2024-01-16T04:58:25;-1.10;99.90
31038;DHT22;17702;47.590;7.666;2024-01-16T05:00:51;-1.10;99.90
31038;DHT22;17702;47.590;7.666;2024-01-16T05:03:17;-1.00;99.30
31038;DHT22;17702;47.590;7.666;2024-01-16T05:05:42;-1.10;98.80
31038;DHT22;17702;47.590;7.666;2024-01-16T05:08:08;-1.20;98.90
31038;DHT22;17702;47.590;7.666;2024-01-16T05:10:34;-1.30;98.90
31038;DHT22;17702;47.590;7.666;2024-01-16T05:13:00;-1.40;99.70
31038;DHT22;17702;47.590;7.666;2024-01-16T05:15:25;-1.40;99.90
31038;DHT22;17702;47.590;7.666;2024-01-16T05:17:51;-1.40;99.60
31038;DHT22;17702;47.590;7.666;2024-01-16T05:20:18;-1.50;99.90
31038;DHT22;17702;47.590;7.666;2024-01-16T05:22:44;-1.40;99.90
31038;DHT22;17702;47.590;7.666;2024-01-16T05:25:09;-1.40;99.90
31038;DHT22;17702;47.590;7.666;2024-01-16T05:27:35;-1.40;99.90
31038;DHT22;17702;47.590;7.666;2024-01-16T05:30:01;-1.30;99.90
31038;DHT22;17702;47.590;7.666;2024-01-16T05:32:26;-1.20;99.60
31038;DHT22;17702;47.590;7.666;2024-01-16T05:34:52;-1.20;99.30
31038;DHT22;17702;47.590;7.666;2024-01-16T05:37:19;-1.20;98.50
31038;DHT22;17702;47.590;7.666;2024-01-16T05:39:44;-1.30;99.00
31038;DHT22;17702;47.590;7.666;2024-01-16T05:42:11;-1.30;99.60
31038;DHT22;17702;47.590;7.666;2024-01-16T05:44:37;-1.40;99.40
31038;DHT22;17702;47.590;7.666;2024-01-16T05:47:04;-1.30;99.60
31038;DHT22;17702;47.590;7.666;2024-01-16T05:49:29;-1.30;99.40
31038;DHT22;17702;47.590;7.666;2024-01-16T05:51:55;-1.40;99.80
31038;DHT22;17702;47.590;7.666;2024-01-16T05:54:21;-1.30;99.70
31038;DHT22;17702;47.590;7.666;2024-01-16T05:56:46;-1.30;99.40
31038;DHT22;17702;47.590;7.666;2024-01-16T05:59:12;-1.30;99.70
31038;DHT22;17702;47.590;7.666;2024-01-16T06:01:37;-1.30;99.30
31038;DHT22;17702;47.590;7.666;2024-01-16T06:04:03;-1.30;99.50
31038;DHT22;17702;47.590;7.666;2024-01-16T06:06:29;-1.30;99.40
31038;DHT22;17702;47.590;7.666;2024-01-16T06:08:55;-1.30;99.40
31038;DHT22;17702;47.590;7.666;2024-01-16T06:11:32;-1.30;99.50
31038;DHT22;17702;47.590;7.666;2024-01-16T06:13:58;-1.30;99.50
31038;DHT22;17702;47.590;7.666;2024-01-16T06:16:24;-1.30;99.10
31038;DHT22;17702;47.590;7.666;2024-01-16T06:18:50;-1.20;99.20
31038;DHT22;17702;47.590;7.666;2024-01-16T06:21:16;-1.20;98.50
31038;DHT22;17702;47.590;7.666;2024-01-16T06:23:43;-1.20;99.00
31038;DHT22;17702;47.590;7.666;2024-01-16T06:26:09;-1.30;98.50
31038;DHT22;17702;47.590;7.666;2024-01-16T06:28:34;-1.30;98.20
31038;DHT22;17702;47.590;7.666;2024-01-16T06:31:00;-1.30;98.30
31038;DHT22;17702;47.590;7.666;2024-01-16T06:33:26;-1.30;98.50
31038;DHT22;17702;47.590;7.666;2024-01-16T06:35:54;-1.40;98.80
31038;DHT22;17702;47.590;7.666;2024-01-16T06:38:20;-1.40;98.60
31038;DHT22;17702;47.590;7.666;2024-01-16T06:40:45;-1.40;99.20
31038;DHT22;17702;47.590;7.666;2024-01-16T06:43:11;-1.50;98.60
31038;DHT22;17702;47.590;7.666;2024-01-16T06:45:40;-1.50;99.00
31038;DHT22;17702;47.590;7.666;2024-01-16T06:48:05;-1.40;99.10
31038;DHT22;17702;47.590;7.666;2024-01-16T06:50:31;-1.50;98.70
31038;DHT22;17702;47.590;7.666;2024-01-16T06:52:57;-1.50;99.60
31038;DHT22;17702;47.590;7.666;2024-01-16T06:55:22;-1.40;99.80
31038;DHT22;17702;47.590;7.666;2024-01-16T06:57:48;-1.30;99.90
31038;DHT22;17702;47.590;7.666;2024-01-16T07:00:14;-1.20;99.90
31038;DHT22;17702;47.590;7.666;2024-01-16T07:02:40;-1.20;99.90
31038;DHT22;17702;47.590;7.666;2024-01-16T07:05:09;-1.10;99.90
31038;DHT22;17702;47.590;7.666;2024-01-16T07:07:34;-1.00;99.90
31038;DHT22;17702;47.590;7.666;2024-01-16T07:10:00;-0.90;99.90
31038;DHT22;17702;47.590;7.666;2024-01-16T07:12:26;-0.80;99.90
31038;DHT22;17702;47.590;7.666;2024-01-16T07:14:51;-0.80;99.90
31038;DHT22;17702;47.590;7.666;2024-01-16T07:17:17;-0.80;99.90
31038;DHT22;17702;47.590;7.666;2024-01-16T07:19:42;-0.70;99.90
31038;DHT22;17702;47.590;7.666;2024-01-16T07:22:08;-0.60;99.90
31038;DHT22;17702;47.590;7.666;2024-01-16T07:24:33;-0.50;99.10
31038;DHT22;17702;47.590;7.666;2024-01-16T07:26:59;-0.50;98.90
31038;DHT22;17702;47.590;7.666;2024-01-16T07:29:25;-0.40;98.90
31038;DHT22;17702;47.590;7.666;2024-01-16T07:31:50;-0.40;98.80
31038;DHT22;17702;47.590;7.666;2024-01-16T07:34:17;-0.40;98.70
31038;DHT22;17702;47.590;7.666;2024-01-16T07:36:47;-0.30;98.70
31038;DHT22;17702;47.590;7.666;2024-01-16T07:39:13;-0.30;97.90
31038;DHT22;17702;47.590;7.666;2024-01-16T07:41:39;-0.30;97.90
31038;DHT22;17702;47.590;7.666;2024-01-16T07:44:05;-0.20;98.30
31038;DHT22;17702;47.590;7.666;2024-01-16T07:46:31;-0.20;98.20
31038;DHT22;17702;47.590;7.666;2024-01-16T07:48:56;-0.20;98.20
31038;DHT22;17702;47.590;7.666;2024-01-16T07:51:22;-0.20;97.80
31038;DHT22;17702;47.590;7.666;2024-01-16T07:53:47;-0.20;98.00
31038;DHT22;17702;47.590;7.666;2024-01-16T07:56:14;-0.20;98.20
31038;DHT22;17702;47.590;7.666;2024-01-16T07:58:40;-0.20;97.90
31038;DHT22;17702;47.590;7.666;2024-01-16T08:01:05;-0.20;98.10
31038;DHT22;17702;47.590;7.666;2024-01-16T08:03:31;-0.20;98.00
31038;DHT22;17702;47.590;7.666;2024-01-16T08:05:56;-0.10;97.80
31038;DHT22;17702;47.590;7.666;2024-01-16T08:08:22;-0.10;97.70
31038;DHT22;17702;47.590;7.666;2024-01-16T08:10:48;-0.10;97.50
31038;DHT22;17702;47.590;7.666;2024-01-16T08:13:14;-0.10;98.20
31038;DHT22;17702;47.590;7.666;2024-01-16T08:15:39;0.00;97.60
31038;DHT22;17702;47.590;7.666;2024-01-16T08:18:05;-0.10;97.20
31038;DHT22;17702;47.590;7.666;2024-01-16T08:20:31;0.00;97.60
31038;DHT22;17702;47.590;7.666;2024-01-16T08:22:56;0.00;97.20
31038;DHT22;17702;47.590;7.666;2024-01-16T08:25:22;0.10;97.60
31038;DHT22;17702;47.590;7.666;2024-01-16T08:27:47;0.10;97.10
31038;DHT22;17702;47.590;7.666;2024-01-16T08:30:13;0.10;97.00
31038;DHT22;17702;47.590;7.666;2024-01-16T08:32:39;0.10;96.80
31038;DHT22;17702;47.590;7.666;2024-01-16T08:35:05;0.10;96.50
31038;DHT22;17702;47.590;7.666;2024-01-16T08:37:35;0.20;96.30
31038;DHT22;17702;47.590;7.666;2024-01-16T08:40:00;0.20;96.10
31038;DHT22;17702;47.590;7.666;2024-01-16T08:42:26;0.30;96.70
31038;DHT22;17702;47.590;7.666;2024-01-16T08:44:52;0.30;96.40
31038;DHT22;17702;47.590;7.666;2024-01-16T08:47:17;0.40;96.90
31038;DHT22;17702;47.590;7.666;2024-01-16T08:49:43;0.50;96.50
31038;DHT22;17702;47.590;7.666;2024-01-16T08:52:09;0.60;96.20
31038;DHT22;17702;47.590;7.666;2024-01-16T08:54:35;0.70;95.90
31038;DHT22;17702;47.590;7.666;2024-01-16T08:57:01;0.80;96.90
31038;DHT22;17702;47.590;7.666;2024-01-16T08:59:26;0.90;96.00
31038;DHT22;17702;47.590;7.666;2024-01-16T09:01:53;1.00;96.10
31038;DHT22;17702;47.590;7.666;2024-01-16T09:04:19;1.20;95.20
31038;DHT22;17702;47.590;7.666;2024-01-16T09:06:44;1.30;94.50
31038;DHT22;17702;47.590;7.666;2024-01-16T09:09:11;1.40;95.00
31038;DHT22;17702;47.590;7.666;2024-01-16T09:11:38;1.50;94.60
31038;DHT22;17702;47.590;7.666;2024-01-16T09:14:03;1.70;94.40
31038;DHT22;17702;47.590;7.666;2024-01-16T09:16:29;1.80;93.60
31038;DHT22;17702;47.590;7.666;2024-01-16T09:18:54;1.90;94.30
31038;DHT22;17702;47.590;7.666;2024-01-16T09:21:20;2.00;92.70
31038;DHT22;17702;47.590;7.666;2024-01-16T09:23:46;2.00;93.40
31038;DHT22;17702;47.590;7.666;2024-01-16T09:26:11;2.00;92.30
31038;DHT22;17702;47.590;7.666;2024-01-16T09:28:37;2.00;92.10
31038;DHT22;17702;47.590;7.666;2024-01-16T09:31:02;2.10;92.90
31038;DHT22;17702;47.590;7.666;2024-01-16T09:33:29;2.20;91.60
31038;DHT22;17702;47.590;7.666;2024-01-16T09:35:54;2.30;92.40
31038;DHT22;17702;47.590;7.666;2024-01-16T09:38:20;2.40;92.40
31038;DHT22;17702;47.590;7.666;2024-01-16T09:40:46;2.50;91.20
31038;DHT22;17702;47.590;7.666;2024-01-16T09:43:13;2.60;91.80
31038;DHT22;17702;47.590;7.666;2024-01-16T09:45:38;2.70;91.00
31038;DHT22;17702;47.590;7.666;2024-01-16T09:48:05;2.70;91.20
31038;DHT22;17702;47.590;7.666;2024-01-16T09:50:33;2.80;91.40
31038;DHT22;17702;47.590;7.666;2024-01-16T09:52:59;2.80;90.90
31038;DHT22;17702;47.590;7.666;2024-01-16T09:55:24;2.80;90.10
31038;DHT22;17702;47.590;7.666;2024-01-16T09:57:52;2.80;91.80
31038;DHT22;17702;47.590;7.666;2024-01-16T10:00:19;2.80;90.00
31038;DHT22;17702;47.590;7.666;2024-01-16T10:02:45;2.80;90.60
31038;DHT22;17702;47.590;7.666;2024-01-16T10:05:12;2.90;90.50
31038;DHT22;17702;47.590;7.666;2024-01-16T10:07:39;2.90;90.40
31038;DHT22;17702;47.590;7.666;2024-01-16T10:10:06;3.00;90.00
31038;DHT22;17702;47.590;7.666;2024-01-16T10:12:32;3.00;89.50
31038;DHT22;17702;47.590;7.666;2024-01-16T10:14:58;2.90;91.00
31038;DHT22;17702;47.590;7.666;2024-01-16T10:17:41;3.00;90.50
31038;DHT22;17702;47.590;7.666;2024-01-16T10:20:08;3.10;88.80
31038;DHT22;17702;47.590;7.666;2024-01-16T10:22:41;3.20;89.80
31038;DHT22;17702;47.590;7.666;2024-01-16T10:25:11;3.30;87.60
31038;DHT22;17702;47.590;7.666;2024-01-16T10:27:45;3.30;86.10
31038;DHT22;17702;47.590;7.666;2024-01-16T10:30:11;3.30;89.30
31038;DHT22;17702;47.590;7.666;2024-01-16T10:32:40;3.50;86.30
31038;DHT22;17702;47.590;7.666;2024-01-16T10:35:13;3.60;86.30
31038;DHT22;17702;47.590;7.666;2024-01-16T10:37:42;3.90;88.10
31038;DHT22;17702;47.590;7.666;2024-01-16T10:40:18;4.10;89.70
31038;DHT22;17702;47.590;7.666;2024-01-16T10:43:05;4.40;87.60
31038;DHT22;17702;47.590;7.666;2024-01-16T10:45:33;4.70;85.10
31038;DHT22;17702;47.590;7.666;2024-01-16T10:48:02;4.90;83.20
31038;DHT22;17702;47.590;7.666;2024-01-16T10:50:29;5.00;81.10
31038;DHT22;17702;47.590;7.666;2024-01-16T10:52:55;5.20;84.00
31038;DHT22;17702;47.590;7.666;2024-01-16T10:55:24;5.40;79.70
31038;DHT22;17702;47.590;7.666;2024-01-16T10:57:50;5.50;79.80
31038;DHT22;17702;47.590;7.666;2024-01-16T11:00:19;5.50;78.50
31038;DHT22;17702;47.590;7.666;2024-01-16T11:02:54;5.60;80.70
31038;DHT22;17702;47.590;7.666;2024-01-16T11:05:24;5.60;78.10
31038;DHT22;17702;47.590;7.666;2024-01-16T11:07:50;5.60;77.00
31038;DHT22;17702;47.590;7.666;2024-01-16T11:10:18;5.60;78.70
31038;DHT22;17702;47.590;7.666;2024-01-16T11:12:45;5.60;79.00
31038;DHT22;17702;47.590;7.666;2024-01-16T11:15:12;5.60;77.30
31038;DHT22;17702;47.590;7.666;2024-01-16T11:17:38;5.70;75.70
31038;DHT22;17702;47.590;7.666;2024-01-16T11:20:06;5.70;78.90
31038;DHT22;17702;47.590;7.666;2024-01-16T11:22:40;5.70;75.40
31038;DHT22;17702;47.590;7.666;2024-01-16T11:25:13;5.60;75.30
31038;DHT22;17702;47.590;7.666;2024-01-16T11:27:41;5.60;78.70
31038;DHT22;17702;47.590;7.666;2024-01-16T11:30:08;5.70;78.90
31038;DHT22;17702;47.590;7.666;2024-01-16T11:32:38;5.70;79.80
31038;DHT22;17702;47.590;7.666;2024-01-16T11:35:07;5.80;79.20
31038;DHT22;17702;47.590;7.666;2024-01-16T11:37:33;5.90;79.40
31038;DHT22;17702;47.590;7.666;2024-01-16T11:42:49;6.00;76.40
31038;DHT22;17702;47.590;7.666;2024-01-16T11:48:15;5.80;76.60
31038;DHT22;17702;47.590;7.666;2024-01-16T11:50:42;5.70;78.60
31038;DHT22;17702;47.590;7.666;2024-01-16T11:53:08;5.60;78.70
31038;DHT22;17702;47.590;7.666;2024-01-16T11:55:35;5.60;79.30
31038;DHT22;17702;47.590;7.666;2024-01-16T12:00:51;5.50;78.20
31038;DHT22;17702;47.590;7.666;2024-01-16T12:03:20;5.60;78.40
31038;DHT22;17702;47.590;7.666;2024-01-16T12:05:59;5.50;81.00
31038;DHT22;17702;47.590;7.666;2024-01-16T12:08:25;5.60;81.60
31038;DHT22;17702;47.590;7.666;2024-01-16T12:10:51;5.60;78.30
31038;DHT22;17702;47.590;7.666;2024-01-16T12:13:17;5.60;81.10
31038;DHT22;17702;47.590;7.666;2024-01-16T12:15:43;5.60;77.70
31038;DHT22;17702;47.590;7.666;2024-01-16T12:18:09;5.60;76.60
31038;DHT22;17702;47.590;7.666;2024-01-16T12:20:38;5.70;78.60
31038;DHT22;17702;47.590;7.666;2024-01-16T12:23:06;5.80;79.70
31038;DHT22;17702;47.590;7.666;2024-01-16T12:25:33;5.90;78.20
31038;DHT22;17702;47.590;7.666;2024-01-16T12:28:01;6.00;75.80
31038;DHT22;17702;47.590;7.666;2024-01-16T12:33:10;6.20;76.90
31038;DHT22;17702;47.590;7.666;2024-01-16T12:35:36;6.40;78.40
31038;DHT22;17702;47.590;7.666;2024-01-16T12:38:06;6.50;75.70
31038;DHT22;17702;47.590;7.666;2024-01-16T12:40:41;6.60;76.00
31038;DHT22;17702;47.590;7.666;2024-01-16T12:43:08;6.70;75.10
31038;DHT22;17702;47.590;7.666;2024-01-16T12:45:37;6.70;73.20
31038;DHT22;17702;47.590;7.666;2024-01-16T12:48:02;6.80;75.30
31038;DHT22;17702;47.590;7.666;2024-01-16T12:50:30;6.90;72.70
31038;DHT22;17702;47.590;7.666;2024-01-16T12:53:10;6.80;73.10
31038;DHT22;17702;47.590;7.666;2024-01-16T12:55:40;6.80;72.60
31038;DHT22;17702;47.590;7.666;2024-01-16T12:58:40;6.90;75.00
31038;DHT22;17702;47.590;7.666;2024-01-16T13:01:25;7.20;75.90
31038;DHT22;17702;47.590;7.666;2024-01-16T13:03:52;7.30;71.40
31038;DHT22;17702;47.590;7.666;2024-01-16T13:06:19;7.30;70.50
31038;DHT22;17702;47.590;7.666;2024-01-16T13:08:48;7.30;72.30
31038;DHT22;17702;47.590;7.666;2024-01-16T13:11:14;7.40;72.20
31038;DHT22;17702;47.590;7.666;2024-01-16T13:13:46;7.30;70.00
31038;DHT22;17702;47.590;7.666;2024-01-16T13:16:16;7.30;71.50
31038;DHT22;17702;47.590;7.666;2024-01-16T13:18:42;7.20;71.00
31038;DHT22;17702;47.590;7.666;2024-01-16T13:21:08;7.10;70.70
31038;DHT22;17702;47.590;7.666;2024-01-16T13:23:33;7.10;70.00
31038;DHT22;17702;47.590;7.666;2024-01-16T13:26:00;7.00;70.10
31038;DHT22;17702;47.590;7.666;2024-01-16T13:28:29;6.90;70.90
31038;DHT22;17702;47.590;7.666;2024-01-16T13:30:55;6.80;70.80
31038;DHT22;17702;47.590;7.666;2024-01-16T13:33:23;6.70;73.00
31038;DHT22;17702;47.590;7.666;2024-01-16T13:35:49;6.60;73.30
31038;DHT22;17702;47.590;7.666;2024-01-16T13:38:15;6.60;74.80
31038;DHT22;17702;47.590;7.666;2024-01-16T13:40:44;6.60;74.40
31038;DHT22;17702;47.590;7.666;2024-01-16T13:43:10;6.60;73.90
31038;DHT22;17702;47.590;7.666;2024-01-16T13:45:37;6.60;76.20
31038;DHT22;17702;47.590;7.666;2024-01-16T13:48:04;6.60;74.70
31038;DHT22;17702;47.590;7.666;2024-01-16T13:50:31;6.60;75.10
31038;DHT22;17702;47.590;7.666;2024-01-16T13:52:56;6.50;72.60
31038;DHT22;17702;47.590;7.666;2024-01-16T13:55:22;6.50;72.90
31038;DHT22;17702;47.590;7.666;2024-01-16T13:57:48;6.40;72.30
31038;DHT22;17702;47.590;7.666;2024-01-16T14:00:14;6.40;72.70
31038;DHT22;17702;47.590;7.666;2024-01-16T14:02:45;6.30;73.60
31038;DHT22;17702;47.590;7.666;2024-01-16T14:05:12;6.30;74.30
31038;DHT22;17702;47.590;7.666;2024-01-16T14:07:41;6.20;73.90
31038;DHT22;17702;47.590;7.666;2024-01-16T14:10:10;6.10;74.10
31038;DHT22;17702;47.590;7.666;2024-01-16T14:12:40;6.00;74.20
31038;DHT22;17702;47.590;7.666;2024-01-16T14:15:11;5.90;75.00
31038;DHT22;17702;47.590;7.666;2024-01-16T14:17:51;6.00;76.60
31038;DHT22;17702;47.590;7.666;2024-01-16T14:20:19;5.90;76.10
31038;DHT22;17702;47.590;7.666;2024-01-16T14:22:48;6.00;75.80
31038;DHT22;17702;47.590;7.666;2024-01-16T14:25:14;5.90;75.30
31038;DHT22;17702;47.590;7.666;2024-01-16T14:28:03;6.00;77.60
31038;DHT22;17702;47.590;7.666;2024-01-16T14:30:29;5.90;76.70
31038;DHT22;17702;47.590;7.666;2024-01-16T14:32:55;5.90;76.40
31038;DHT22;17702;47.590;7.666;2024-01-16T14:35:22;5.80;76.70
31038;DHT22;17702;47.590;7.666;2024-01-16T14:37:49;5.80;78.00
31038;DHT22;17702;47.590;7.666;2024-01-16T14:40:15;5.80;77.70
31038;DHT22;17702;47.590;7.666;2024-01-16T14:42:54;5.80;77.50
31038;DHT22;17702;47.590;7.666;2024-01-16T14:45:22;5.80;78.00
31038;DHT22;17702;47.590;7.666;2024-01-16T14:47:48;5.70;79.70
31038;DHT22;17702;47.590;7.666;2024-01-16T14:50:16;5.80;79.50
31038;DHT22;17702;47.590;7.666;2024-01-16T14:52:45;5.70;77.20
31038;DHT22;17702;47.590;7.666;2024-01-16T14:55:11;5.70;77.30
31038;DHT22;17702;47.590;7.666;2024-01-16T14:57:40;5.60;78.00
31038;DHT22;17702;47.590;7.666;2024-01-16T15:00:12;5.50;78.00
31038;DHT22;17702;47.590;7.666;2024-01-16T15:02:51;5.40;79.00
31038;DHT22;17702;47.590;7.666;2024-01-16T15:05:17;5.40;81.50
31038;DHT22;17702;47.590;7.666;2024-01-16T15:07:44;5.40;81.40
31038;DHT22;17702;47.590;7.666;2024-01-16T15:10:10;5.40;81.90
31038;DHT22;17702;47.590;7.666;2024-01-16T15:12:42;5.30;82.10
31038;DHT22;17702;47.590;7.666;2024-01-16T15:15:09;5.30;81.00
31038;DHT22;17702;47.590;7.666;2024-01-16T15:17:36;5.30;83.60
31038;DHT22;17702;47.590;7.666;2024-01-16T15:20:02;5.30;85.20
31038;DHT22;17702;47.590;7.666;2024-01-16T15:22:29;5.10;87.10
31038;DHT22;17702;47.590;7.666;2024-01-16T15:24:57;5.00;88.80
31038;DHT22;17702;47.590;7.666;2024-01-16T15:27:22;5.00;89.50
31038;DHT22;17702;47.590;7.666;2024-01-16T15:29:48;4.80;90.70
31038;DHT22;17702;47.590;7.666;2024-01-16T15:32:14;4.70;91.30
31038;DHT22;17702;47.590;7.666;2024-01-16T15:34:40;4.70;91.50
31038;DHT22;17702;47.590;7.666;2024-01-16T15:37:06;4.70;91.50
31038;DHT22;17702;47.590;7.666;2024-01-16T15:39:31;4.50;91.50
31038;DHT22;17702;47.590;7.666;2024-01-16T15:41:57;4.40;92.10
31038;DHT22;17702;47.590;7.666;2024-01-16T15:44:23;4.40;92.20
31038;DHT22;17702;47.590;7.666;2024-01-16T15:46:56;4.20;92.60
31038;DHT22;17702;47.590;7.666;2024-01-16T15:49:23;4.10;92.80